ADDS METAR Data INFO
IDs: Format: Raw Decoded Include TAF

Data at: 1632 UTC 23 Nov 2017

METAR for:KIAH (Houston/Bush Intl, TX, US)
Text:KIAH 231553Z 00000KT 10SM FEW250 12/03 A3022 RMK AO2 SLP235 T01170028
Temperature: 11.7°C ( 53°F)
Dewpoint: 2.8°C ( 37°F) [RH = 54%]
Pressure (altimeter):30.22 inches Hg (1023.5 mb) [Sea level pressure: 1023.5 mb]
Winds:calm
Visibility:10 or more sm (16+ km)
Ceiling:at least 12,000 feet AGL
Clouds: few clouds at 25000 feet AGL

METAR for:KHOU (Houston/Hobby Arpt, TX, US)
Text:KHOU 231553Z 07005KT 10SM FEW250 12/03 A3021 RMK AO2 SLP236 T01220028
Temperature: 12.2°C ( 54°F)
Dewpoint: 2.8°C ( 37°F) [RH = 53%]
Pressure (altimeter):30.21 inches Hg (1023.1 mb) [Sea level pressure: 1023.6 mb]
Winds:from the ENE (70 degrees) at 6 MPH (5 knots; 2.6 m/s)
Visibility:10 or more sm (16+ km)
Ceiling:at least 12,000 feet AGL
Clouds: few clouds at 25000 feet AGL

METAR for:KGLS (Galveston/Scholes In, TX, US)
Text:KGLS 231552Z 01010KT 10SM CLR 13/04 A3021 RMK AO2 SLP230 T01330044
Temperature: 13.3°C ( 56°F)
Dewpoint: 4.4°C ( 40°F) [RH = 55%]
Pressure (altimeter):30.21 inches Hg (1023.1 mb) [Sea level pressure: 1023.0 mb]
Winds:from the N (10 degrees) at 12 MPH (10 knots; 5.1 m/s)
Visibility:10 or more sm (16+ km)
Ceiling:at least 12,000 feet AGL
Clouds:sky clear below 12,000 feet AGL

METAR for:KLVJ (Houston/Pearland Rgn, TX, US)
Text:KLVJ 231553Z AUTO 02004KT 10SM CLR 13/03 A3023 RMK AO2 SLP234 T01330028
Temperature: 13.3°C ( 56°F)
Dewpoint: 2.8°C ( 37°F) [RH = 49%]
Pressure (altimeter):30.23 inches Hg (1023.8 mb) [Sea level pressure: 1023.4 mb]
Winds:from the NNE (20 degrees) at 5 MPH (4 knots; 2.1 m/s)
Visibility:10 or more sm (16+ km)
Ceiling:at least 12,000 feet AGL
Clouds:sky clear below 12,000 feet AGL
QC Flag:automated observation with no human augmentation

METAR for:KSGR (Houston/Sugar Land R, TX, US)
Text:KSGR 231553Z 05006KT 10SM CLR 13/02 A3021 RMK AO2 SLP233 T01280017
Temperature: 12.8°C ( 55°F)
Dewpoint: 1.7°C ( 35°F) [RH = 47%]
Pressure (altimeter):30.21 inches Hg (1023.1 mb) [Sea level pressure: 1023.3 mb]
Winds:from the NE (50 degrees) at 7 MPH (6 knots; 3.1 m/s)
Visibility:10 or more sm (16+ km)
Ceiling:at least 12,000 feet AGL
Clouds:sky clear below 12,000 feet AGL

METAR for:KDWH (Houston/Hooks Mem, TX, US)
Text:KDWH 231553Z VRB03KT 10SM CLR 12/04 A3022 RMK AO2 SLP232 T01170039
Temperature: 11.7°C ( 53°F)
Dewpoint: 3.9°C ( 39°F) [RH = 59%]
Pressure (altimeter):30.22 inches Hg (1023.5 mb) [Sea level pressure: 1023.2 mb]
Winds:variable direction winds at 3 MPH (3 knots; 1.5 m/s)
Visibility:10 or more sm (16+ km)
Ceiling:at least 12,000 feet AGL
Clouds:sky clear below 12,000 feet AGL

METAR for:KCLL (College Station/East, TX, US)
Text:KCLL 231553Z 01004KT 10SM CLR 12/M01 A3023 RMK AO2 SLP235 T01171011
Temperature: 11.7°C ( 53°F)
Dewpoint: -1.1°C ( 30°F) [RH = 41%]
Pressure (altimeter):30.23 inches Hg (1023.8 mb) [Sea level pressure: 1023.5 mb]
Winds:from the N (10 degrees) at 5 MPH (4 knots; 2.1 m/s)
Visibility:10 or more sm (16+ km)
Ceiling:at least 12,000 feet AGL
Clouds:sky clear below 12,000 feet AGL

METAR for:KUTS (Huntsville Muni, TX, US)
Text:KUTS 231553Z AUTO 00000KT 10SM CLR 11/02 A3022 RMK AO2 SLP232 T01060022
Temperature: 10.6°C ( 51°F)
Dewpoint: 2.2°C ( 36°F) [RH = 56%]
Pressure (altimeter):30.22 inches Hg (1023.5 mb) [Sea level pressure: 1023.2 mb]
Winds:calm
Visibility:10 or more sm (16+ km)
Ceiling:at least 12,000 feet AGL
Clouds:sky clear below 12,000 feet AGL
QC Flag:automated observation with no human augmentation

METAR for:KCXO (Conroe/Executive Arp, TX, US)
Text:KCXO 231553Z 00000KT 10SM CLR 11/04 A3022 RMK AO2 SLP232 T01110039
Temperature: 11.1°C ( 52°F)
Dewpoint: 3.9°C ( 39°F) [RH = 61%]
Pressure (altimeter):30.22 inches Hg (1023.5 mb) [Sea level pressure: 1023.2 mb]
Winds:calm
Visibility:10 or more sm (16+ km)
Ceiling:at least 12,000 feet AGL
Clouds:sky clear below 12,000 feet AGL

METAR for:KLBX (Angleton/Texas Gulf, TX, US)
Text:KLBX 231553Z AUTO 04007KT 10SM CLR 14/05 A3021 RMK AO2 SLP228 T01390050
Temperature: 13.9°C ( 57°F)
Dewpoint: 5.0°C ( 41°F) [RH = 55%]
Pressure (altimeter):30.21 inches Hg (1023.1 mb) [Sea level pressure: 1022.8 mb]
Winds:from the NE (40 degrees) at 8 MPH (7 knots; 3.6 m/s)
Visibility:10 or more sm (16+ km)
Ceiling:at least 12,000 feet AGL
Clouds:sky clear below 12,000 feet AGL
QC Flag:automated observation with no human augmentation

METAR for:KPSX (Palacios Muni, TX, US)
Text:KPSX 231553Z AUTO VRB04KT 10SM CLR 14/05 A3021 RMK AO2 SLP229 T01440050
Temperature: 14.4°C ( 58°F)
Dewpoint: 5.0°C ( 41°F) [RH = 53%]
Pressure (altimeter):30.21 inches Hg (1023.1 mb) [Sea level pressure: 1022.9 mb]
Winds:variable direction winds at 5 MPH (4 knots; 2.1 m/s)
Visibility:10 or more sm (16+ km)
Ceiling:at least 12,000 feet AGL
Clouds:sky clear below 12,000 feet AGL
QC Flag:automated observation with no human augmentation